createdAt,value
2023-02-12T00:01:54.448Z,101983.03
2023-02-12T00:04:23.409Z,101988.34
2023-02-12T00:06:52.352Z,101987.19
2023-02-12T00:09:21.283Z,101996.19
2023-02-12T00:11:50.586Z,101999.34
2023-02-12T00:14:21.577Z,102003.97
2023-02-12T00:16:53.752Z,102010.25
2023-02-12T00:19:22.817Z,102012.91
2023-02-12T00:21:51.723Z,102007.16
2023-02-12T00:24:20.681Z,102011.78
2023-02-12T00:26:52.755Z,102011.22
2023-02-12T00:29:22.518Z,101996.44
2023-02-12T00:31:51.429Z,102012.47
2023-02-12T00:34:20.482Z,102014.91
2023-02-12T00:36:49.578Z,102009.56
2023-02-12T00:39:18.587Z,102012.97
2023-02-12T00:41:47.503Z,102014.97
2023-02-12T00:44:16.883Z,102010.91
2023-02-12T00:46:45.964Z,102010.41
2023-02-12T00:49:15.106Z,102012.25
2023-02-12T00:51:45.058Z,102017.81
2023-02-12T00:54:14.012Z,102013.66
2023-02-12T00:56:43.332Z,102023.59
2023-02-12T00:59:12.354Z,102026.56
2023-02-12T01:01:45.664Z,102028.66
2023-02-12T01:04:18.126Z,102032.16
2023-02-12T01:07:02.979Z,102024.75
2023-02-12T01:09:42.912Z,102027.03
2023-02-12T01:12:12.179Z,102031.06
2023-02-12T01:14:41.801Z,102033.38
2023-02-12T01:17:13.386Z,102042.81
2023-02-12T01:19:46.584Z,102037.22
2023-02-12T01:22:15.722Z,102032.69
2023-02-12T01:24:53.395Z,102017.31
2023-02-12T01:27:22.526Z,102019.84
2023-02-12T01:32:56.613Z,102005.75
2023-02-12T01:35:25.861Z,102010.31
2023-02-12T01:37:57.449Z,102003.19
2023-02-12T01:40:28.420Z,101994.44
2023-02-12T01:43:01.032Z,101990.19
2023-02-12T01:45:30.039Z,101987.81
2023-02-12T01:48:02.239Z,101983.91
2023-02-12T01:50:41.460Z,101975.56
2023-02-12T01:53:22.924Z,101977.75
2023-02-12T01:55:57.215Z,101984.09
2023-02-12T01:58:30.014Z,101975.41
2023-02-12T02:01:13.553Z,101970.06
2023-02-12T02:03:46.454Z,101968.91
2023-02-12T02:06:29.130Z,101983.56
2023-02-12T02:08:58.499Z,101981.75
2023-02-12T02:11:45.764Z,101976.88
2023-02-12T02:14:35.032Z,101972.03
2023-02-12T02:17:36.381Z,101964.44
2023-02-12T02:20:22.181Z,101982.63
2023-02-12T02:23:20.567Z,101980.69
2023-02-12T02:26:27.615Z,101977.66
2023-02-12T02:29:18.053Z,101990.84
2023-02-12T02:31:55.814Z,101996.88
2023-02-12T02:34:42.468Z,102002.25
2023-02-12T02:37:28.426Z,102000.00
2023-02-12T02:40:25.687Z,102000.16
2023-02-12T02:43:21.546Z,102004.09
2023-02-12T02:45:56.369Z,101996.63
2023-02-12T02:49:08.597Z,101994.84
2023-02-12T02:52:03.115Z,101984.97
2023-02-12T02:54:38.430Z,101983.50
2023-02-12T02:57:15.696Z,101985.16
2023-02-12T02:59:51.505Z,101975.72
2023-02-12T03:02:32.567Z,101980.09
2023-02-12T03:05:10.683Z,101982.38
2023-02-12T03:07:52.137Z,101974.25
2023-02-12T03:10:40.077Z,101988.03
2023-02-12T03:13:14.271Z,101984.94
2023-02-12T03:15:55.534Z,101988.03
2023-02-12T03:18:31.621Z,102000.84
2023-02-12T03:21:10.411Z,101986.41
2023-02-12T03:23:59.456Z,101966.00
2023-02-12T03:26:51.828Z,101959.06
2023-02-12T03:29:21.797Z,101943.66
2023-02-12T03:32:38.643Z,101938.00
2023-02-12T03:35:13.543Z,101938.31
2023-02-12T03:38:16.576Z,101940.13
2023-02-12T03:41:19.400Z,101933.63
2023-02-12T03:44:03.021Z,101936.56
2023-02-12T03:46:40.972Z,101948.84
2023-02-12T03:49:30.657Z,101946.41
2023-02-12T03:52:03.252Z,101956.91
2023-02-12T03:54:34.915Z,101965.16
2023-02-12T03:57:24.723Z,101956.91
2023-02-12T03:59:56.198Z,101958.88
2023-02-12T04:02:25.208Z,101948.50
2023-02-12T04:04:57.186Z,101950.28
2023-02-12T04:07:26.557Z,101963.53
2023-02-12T04:09:58.585Z,101959.28
2023-02-12T04:12:46.575Z,101958.34
2023-02-12T04:15:23.399Z,101951.25
2023-02-12T04:18:16.839Z,101950.75
2023-02-12T04:21:14.077Z,101966.94
2023-02-12T04:23:54.505Z,101949.75
2023-02-12T04:26:45.679Z,101962.66
2023-02-12T04:29:36.686Z,101976.06
2023-02-12T04:32:14.317Z,101971.25
2023-02-12T04:34:48.966Z,101979.47
2023-02-12T04:37:31.964Z,101977.34
2023-02-12T04:40:09.568Z,101979.63
2023-02-12T04:42:52.489Z,101979.47
2023-02-12T04:45:32.439Z,101986.81
2023-02-12T04:48:05.704Z,101996.16
2023-02-12T04:50:43.806Z,102002.66
2023-02-12T04:53:13.469Z,102002.00
2023-02-12T04:55:42.559Z,101990.03
2023-02-12T04:58:14.637Z,101987.59
2023-02-12T05:00:47.031Z,101976.31
2023-02-12T05:03:19.085Z,101976.16
2023-02-12T05:05:48.136Z,101996.16
2023-02-12T05:08:19.873Z,102005.44
2023-02-12T05:10:48.973Z,102020.78
2023-02-12T05:13:24.312Z,102029.44
2023-02-12T05:15:59.799Z,102029.38
2023-02-12T05:18:50.692Z,102016.19
2023-02-12T05:21:23.071Z,102012.97
2023-02-12T05:23:57.900Z,102018.19
2023-02-12T05:26:29.774Z,102012.06
2023-02-12T05:28:58.795Z,102003.13
2023-02-12T05:31:28.115Z,102013.06
2023-02-12T05:33:57.173Z,102018.81
2023-02-12T05:36:26.773Z,102016.19
2023-02-12T05:38:59.927Z,102027.78
2023-02-12T05:41:29.816Z,102031.06
2023-02-12T05:43:58.656Z,102034.94
2023-02-12T05:46:30.814Z,102045.78
2023-02-12T05:48:59.869Z,102044.25
2023-02-12T05:51:29.177Z,102063.84
2023-02-12T05:54:03.071Z,102067.25
2023-02-12T05:56:34.870Z,102068.53
2023-02-12T05:59:10.467Z,102063.44
2023-02-12T06:01:42.582Z,102064.66
2023-02-12T06:04:20.750Z,102063.34
2023-02-12T06:06:53.913Z,102053.69
2023-02-12T06:09:24.728Z,102037.84
2023-02-12T06:11:53.721Z,102052.63
2023-02-12T06:14:22.815Z,102056.50
2023-02-12T06:16:53.160Z,102049.00
2023-02-12T06:19:22.871Z,102059.00
2023-02-12T06:21:53.965Z,102051.50
2023-02-12T06:24:22.918Z,102062.47
2023-02-12T06:26:52.770Z,102052.72
2023-02-12T06:29:22.623Z,102045.78
2023-02-12T06:31:51.788Z,102051.16
2023-02-12T06:34:20.825Z,102040.50
2023-02-12T06:36:49.894Z,102054.47
2023-02-12T06:39:19.422Z,102043.03
2023-02-12T06:41:48.326Z,102044.16
2023-02-12T06:44:17.600Z,102024.44
2023-02-12T06:46:46.840Z,102024.28
2023-02-12T06:49:17.401Z,102019.38
2023-02-12T06:51:46.399Z,102019.81
2023-02-12T06:54:17.630Z,102020.22
2023-02-12T06:56:49.935Z,102004.97
2023-02-12T06:59:19.492Z,102012.72
2023-02-12T07:01:51.448Z,102013.34
2023-02-12T07:04:20.480Z,102015.19
2023-02-12T07:06:50.109Z,102013.25
2023-02-12T07:09:19.534Z,102004.22
2023-02-12T07:11:48.408Z,102015.00
2023-02-12T07:14:17.916Z,102000.56
2023-02-12T07:16:47.017Z,101993.66
2023-02-12T07:19:18.739Z,101986.53
2023-02-12T07:21:47.860Z,101992.84
2023-02-12T07:24:19.121Z,101993.53
2023-02-12T07:26:48.264Z,102000.28
2023-02-12T07:29:18.018Z,102006.88
2023-02-12T07:31:47.379Z,102013.19
2023-02-12T07:34:16.328Z,102020.06
2023-02-12T07:36:45.285Z,102020.78
2023-02-12T07:39:14.259Z,102029.03
2023-02-12T07:41:55.164Z,102020.88
2023-02-12T07:44:24.126Z,102026.06
2023-02-12T07:46:53.259Z,102022.31
2023-02-12T07:49:23.636Z,102020.25
2023-02-12T07:51:52.646Z,102001.19
2023-02-12T07:54:21.534Z,102009.50
2023-02-12T07:56:52.662Z,102017.63
2023-02-12T07:59:22.287Z,102023.19
2023-02-12T08:01:54.055Z,102016.41
2023-02-12T08:04:25.861Z,102024.06
2023-02-12T08:06:57.090Z,102017.34
2023-02-12T08:09:28.202Z,102020.03
2023-02-12T08:12:00.237Z,102024.28
2023-02-12T08:14:30.224Z,102022.66
2023-02-12T08:17:02.157Z,102017.16
2023-02-12T08:19:31.126Z,102012.88
2023-02-12T08:22:00.191Z,102022.75
2023-02-12T08:24:29.804Z,102018.91
2023-02-12T08:26:58.945Z,102026.44
2023-02-12T08:29:31.445Z,102035.59
2023-02-12T08:32:02.773Z,102029.50
2023-02-12T08:34:34.389Z,102026.19
2023-02-12T08:37:05.532Z,102017.97
2023-02-12T08:39:34.613Z,102014.72
2023-02-12T08:42:03.497Z,102016.53
2023-02-12T08:44:32.699Z,102025.66
2023-02-12T08:47:01.813Z,102026.31
2023-02-12T08:49:32.123Z,102025.59
2023-02-12T08:52:03.207Z,102014.81
2023-02-12T08:54:33.526Z,102015.69
2023-02-12T08:57:04.446Z,102008.25
2023-02-12T08:59:33.730Z,102008.69
2023-02-12T09:02:04.960Z,102008.59
2023-02-12T09:04:37.118Z,102011.00
2023-02-12T09:07:13.452Z,102009.91
2023-02-12T09:09:42.587Z,102005.34
2023-02-12T09:12:11.447Z,102000.78
2023-02-12T09:14:42.483Z,101992.41
2023-02-12T09:17:11.587Z,101994.72
2023-02-12T09:19:42.586Z,101989.28
2023-02-12T09:22:11.680Z,101989.38
2023-02-12T09:24:40.952Z,101999.22
2023-02-12T09:27:12.492Z,101998.16
2023-02-12T09:29:41.427Z,102006.47
2023-02-12T09:32:11.398Z,102004.09
2023-02-12T09:34:40.656Z,102010.81
2023-02-12T09:37:09.620Z,102004.75
2023-02-12T09:39:38.736Z,102009.91
2023-02-12T09:42:54.189Z,102014.97
2023-02-12T09:45:27.432Z,102009.06
2023-02-12T09:48:18.216Z,101998.75
2023-02-12T09:50:55.849Z,101997.97
2023-02-12T09:53:29.017Z,101994.72
2023-02-12T09:55:58.535Z,102009.66
2023-02-12T09:58:50.864Z,102012.59
2023-02-12T10:01:23.695Z,102003.28
2023-02-12T10:03:56.866Z,102010.97
2023-02-12T10:06:42.670Z,102024.56
2023-02-12T10:09:40.425Z,102018.22
2023-02-12T10:12:18.615Z,102005.19
2023-02-12T10:14:59.434Z,102000.84
2023-02-12T10:17:40.805Z,102010.88
2023-02-12T10:20:53.299Z,102008.25
2023-02-12T10:23:40.493Z,102008.38
2023-02-12T10:26:53.161Z,101995.25
2023-02-12T10:29:26.421Z,101987.56
2023-02-12T10:32:14.754Z,101992.19
2023-02-12T10:34:44.110Z,101995.56
2023-02-12T10:37:23.131Z,101985.38
2023-02-12T10:40:01.276Z,101981.69
2023-02-12T10:42:42.981Z,101981.53
2023-02-12T10:45:25.093Z,101968.81
2023-02-12T10:48:04.937Z,101967.72
2023-02-12T10:50:58.801Z,101975.72
2023-02-12T10:53:43.749Z,101998.28
2023-02-12T10:56:18.671Z,101993.47
2023-02-12T10:59:02.400Z,101996.28
2023-02-12T11:01:37.935Z,102006.22
2023-02-12T11:04:25.107Z,101997.66
2023-02-12T11:07:01.245Z,102010.47
2023-02-12T11:09:51.763Z,102008.97
2023-02-12T11:12:39.405Z,102006.38
2023-02-12T11:15:14.163Z,102008.72
2023-02-12T11:17:56.554Z,101993.13
2023-02-12T11:20:30.615Z,101991.41
2023-02-12T11:23:08.114Z,101984.25
2023-02-12T11:25:38.985Z,101985.44
2023-02-12T11:28:17.992Z,101998.84
2023-02-12T11:31:11.306Z,101983.81
2023-02-12T11:33:40.667Z,101982.56
2023-02-12T11:36:20.830Z,101985.53
2023-02-12T11:39:00.674Z,101995.13
2023-02-12T11:41:42.342Z,101996.75
2023-02-12T11:44:33.316Z,101984.34
2023-02-12T11:47:09.706Z,101977.28
2023-02-12T11:49:45.428Z,101981.78
2023-02-12T11:52:25.526Z,101985.34
2023-02-12T11:55:01.532Z,101976.78
2023-02-12T11:57:50.099Z,101972.34
2023-02-12T12:00:24.911Z,101968.63
2023-02-12T12:03:13.245Z,101971.47
2023-02-12T12:05:49.295Z,101974.56
2023-02-12T12:08:45.333Z,101974.22
2023-02-12T12:11:30.901Z,101964.66
2023-02-12T12:14:15.285Z,101961.25
2023-02-12T12:17:24.638Z,101960.84
2023-02-12T12:20:22.907Z,101967.31
2023-02-12T12:23:01.621Z,101969.47
2023-02-12T12:25:44.901Z,101964.59
2023-02-12T12:28:37.794Z,101951.19
2023-02-12T12:31:20.850Z,101952.44
2023-02-12T12:34:07.174Z,101942.22
2023-02-12T12:36:40.804Z,101938.94
2023-02-12T12:39:28.280Z,101938.53
2023-02-12T12:42:00.001Z,101935.13
2023-02-12T12:45:03.777Z,101931.28
2023-02-12T12:48:09.440Z,101928.78
2023-02-12T12:51:03.625Z,101931.44
2023-02-12T12:53:50.538Z,101939.09
2023-02-12T12:56:47.456Z,101942.81
2023-02-12T12:59:41.730Z,101946.28
2023-02-12T13:02:35.116Z,101946.75
2023-02-12T13:05:25.214Z,101936.38
2023-02-12T13:08:12.208Z,101921.88
2023-02-12T13:10:51.975Z,101902.88
2023-02-12T13:13:24.241Z,101891.38
2023-02-12T13:16:24.472Z,101901.72
2023-02-12T13:19:39.406Z,101912.47
2023-02-12T13:22:37.146Z,101917.06
2023-02-12T13:25:05.740Z,101914.44
2023-02-12T13:27:41.361Z,101914.94
2023-02-12T13:30:16.915Z,101909.16
2023-02-12T13:32:48.979Z,101902.31
2023-02-12T13:35:22.745Z,101894.53
2023-02-12T13:37:56.159Z,101894.00
2023-02-12T13:40:28.416Z,101881.44
2023-02-12T13:43:23.233Z,101875.53
2023-02-12T13:46:17.232Z,101871.53
2023-02-12T13:49:10.276Z,101877.00
2023-02-12T13:51:47.798Z,101875.59
2023-02-12T13:54:28.632Z,101878.03
2023-02-12T13:57:01.177Z,101880.53
2023-02-12T13:59:33.285Z,101882.25
2023-02-12T14:02:07.333Z,101881.63
2023-02-12T14:04:47.407Z,101881.78
2023-02-12T14:07:17.581Z,101877.94
2023-02-12T14:09:51.624Z,101866.53
2023-02-12T14:12:26.702Z,101872.75
2023-02-12T14:15:12.595Z,101875.28
2023-02-12T14:17:42.952Z,101874.38
2023-02-12T14:20:30.734Z,101867.00
2023-02-12T14:23:24.914Z,101868.41
2023-02-12T14:26:19.281Z,101873.88
2023-02-12T14:28:56.832Z,101865.13
2023-02-12T14:31:28.904Z,101862.63
2023-02-12T14:34:07.006Z,101860.34
2023-02-12T14:36:39.838Z,101855.69
2023-02-12T14:39:21.003Z,101858.19
2023-02-12T14:41:54.222Z,101848.88
2023-02-12T14:44:28.272Z,101852.19
2023-02-12T14:47:00.113Z,101851.59
2023-02-12T14:49:38.679Z,101847.34
2023-02-12T14:52:13.680Z,101849.47
2023-02-12T14:54:42.593Z,101850.59
2023-02-12T14:57:19.936Z,101853.31
2023-02-12T14:59:50.650Z,101854.19
2023-02-12T15:02:35.917Z,101858.44
2023-02-12T15:05:18.131Z,101870.63
2023-02-12T15:07:56.998Z,101880.81
2023-02-12T15:10:38.449Z,101894.78
2023-02-12T15:13:26.712Z,101900.91
2023-02-12T15:16:08.759Z,101888.94
2023-02-12T15:18:58.039Z,101874.59
2023-02-12T15:21:32.468Z,101877.19
2023-02-12T15:24:13.263Z,101872.16
2023-02-12T15:26:50.620Z,101868.47
2023-02-12T15:29:30.469Z,101859.53
2023-02-12T15:32:02.915Z,101865.19
2023-02-12T15:34:36.945Z,101867.13
2023-02-12T15:37:08.427Z,101864.06
2023-02-12T15:39:46.024Z,101852.06
2023-02-12T15:42:35.962Z,101848.91
2023-02-12T15:45:16.686Z,101839.03
2023-02-12T15:47:48.207Z,101852.19
2023-02-12T15:50:19.039Z,101857.78
2023-02-12T15:52:50.336Z,101872.47
2023-02-12T15:55:26.642Z,101874.84
2023-02-12T15:57:58.642Z,101882.88
2023-02-12T16:00:40.401Z,101890.72
2023-02-12T16:03:27.802Z,101885.09
2023-02-12T16:06:17.564Z,101883.69
2023-02-12T16:09:03.440Z,101871.72
2023-02-12T16:11:34.577Z,101854.50
2023-02-12T16:14:08.579Z,101842.88
2023-02-12T16:16:53.589Z,101856.22
2023-02-12T16:19:31.117Z,101846.59
2023-02-12T16:22:06.525Z,101848.97
2023-02-12T16:24:48.012Z,101866.84
2023-02-12T16:27:16.930Z,101866.50
2023-02-12T16:29:49.939Z,101856.69
2023-02-12T16:32:43.859Z,101844.69
2023-02-12T16:35:12.980Z,101831.81
2023-02-12T16:37:46.202Z,101831.09
2023-02-12T16:40:15.129Z,101842.50
2023-02-12T16:42:50.117Z,101840.41
2023-02-12T16:45:36.545Z,101833.47
2023-02-12T16:48:19.437Z,101850.44
2023-02-12T16:50:54.855Z,101837.25
2023-02-12T16:53:31.816Z,101836.44
2023-02-12T16:56:02.466Z,101829.91
2023-02-12T16:58:31.645Z,101824.75
2023-02-12T17:01:03.992Z,101818.81
2023-02-12T17:03:33.259Z,101806.28
2023-02-12T17:06:02.292Z,101811.41
2023-02-12T17:08:31.511Z,101810.97
2023-02-12T17:11:00.406Z,101803.00
2023-02-12T17:13:36.739Z,101808.44
2023-02-12T17:16:30.315Z,101814.34
2023-02-12T17:19:00.785Z,101807.47
2023-02-12T17:21:40.034Z,101801.50
2023-02-12T17:24:27.129Z,101808.09
2023-02-12T17:26:56.316Z,101809.06
2023-02-12T17:29:32.757Z,101818.44
2023-02-12T17:32:02.687Z,101831.13
2023-02-12T17:34:48.005Z,101840.31
2023-02-12T17:37:19.780Z,101842.47
2023-02-12T17:39:48.943Z,101835.34
2023-02-12T17:42:24.885Z,101839.50
2023-02-12T17:45:01.382Z,101838.19
2023-02-12T17:48:00.561Z,101850.75
2023-02-12T17:51:21.046Z,101843.84
2023-02-12T17:54:29.104Z,101835.88
2023-02-12T17:56:58.205Z,101830.47
2023-02-12T17:59:27.235Z,101827.63
2023-02-12T18:01:59.137Z,101815.66
2023-02-12T18:04:28.458Z,101821.41
2023-02-12T18:06:58.401Z,101818.84
2023-02-12T18:09:28.418Z,101822.72
2023-02-12T18:11:58.042Z,101823.41
2023-02-12T18:14:27.034Z,101813.53
2023-02-12T18:16:56.271Z,101809.97
2023-02-12T18:19:28.019Z,101830.16
2023-02-12T18:21:58.177Z,101832.97
2023-02-12T18:24:27.293Z,101826.28
2023-02-12T18:26:56.968Z,101824.41
2023-02-12T18:29:25.886Z,101818.66
2023-02-12T18:31:59.182Z,101814.31
2023-02-12T18:34:29.103Z,101801.47
2023-02-12T18:36:58.565Z,101801.19
2023-02-12T18:39:29.525Z,101813.97
2023-02-12T18:41:58.707Z,101808.94
2023-02-12T18:44:27.618Z,101804.56
2023-02-12T18:46:59.873Z,101810.84
2023-02-12T18:49:29.499Z,101802.97
2023-02-12T18:51:58.700Z,101797.63
2023-02-12T18:54:27.629Z,101795.22
2023-02-12T18:56:56.713Z,101789.06
2023-02-12T18:59:27.341Z,101786.81
2023-02-12T19:01:59.318Z,101804.28
2023-02-12T19:04:28.622Z,101794.69
2023-02-12T19:06:57.908Z,101791.94
2023-02-12T19:09:27.355Z,101782.06
2023-02-12T19:12:00.665Z,101772.97
2023-02-12T19:14:30.253Z,101773.09
2023-02-12T19:16:59.307Z,101778.91
2023-02-12T19:19:28.711Z,101790.00
2023-02-12T19:22:00.860Z,101787.13
2023-02-12T19:24:44.366Z,101784.97
2023-02-12T19:27:15.235Z,101766.31
2023-02-12T19:29:44.358Z,101769.25
2023-02-12T19:32:13.513Z,101769.00
2023-02-12T19:34:43.089Z,101764.69
2023-02-12T19:37:14.770Z,101764.31
2023-02-12T19:39:43.930Z,101759.47
2023-02-12T19:42:15.567Z,101756.78
2023-02-12T19:44:47.449Z,101757.91
2023-02-12T19:47:16.746Z,101752.19
2023-02-12T19:49:45.753Z,101753.19
2023-02-12T19:52:14.921Z,101740.75
2023-02-12T19:54:46.089Z,101738.31
2023-02-12T19:57:16.000Z,101740.03
2023-02-12T19:59:47.214Z,101735.34
2023-02-12T20:02:16.205Z,101726.25
2023-02-12T20:04:45.270Z,101725.75
2023-02-12T20:07:15.184Z,101730.38
2023-02-12T20:09:44.192Z,101734.06
2023-02-12T20:12:16.971Z,101731.47
2023-02-12T20:14:46.178Z,101731.47
2023-02-12T20:17:15.472Z,101729.00
2023-02-12T20:19:44.479Z,101730.44
2023-02-12T20:22:16.595Z,101723.44
2023-02-12T20:24:47.837Z,101721.59
2023-02-12T20:27:19.691Z,101721.78
2023-02-12T20:29:48.676Z,101716.13
2023-02-12T20:32:17.660Z,101701.25
2023-02-12T20:34:51.170Z,101706.34
2023-02-12T20:37:20.887Z,101699.34
2023-02-12T20:39:50.288Z,101700.88
2023-02-12T20:42:19.191Z,101693.53
2023-02-12T20:44:48.304Z,101673.94
2023-02-12T20:47:17.506Z,101671.84
2023-02-12T20:49:49.203Z,101667.88
2023-02-12T20:52:18.334Z,101658.50
2023-02-12T20:54:48.029Z,101647.50
2023-02-12T20:57:18.611Z,101637.81
2023-02-12T20:59:50.633Z,101632.72
2023-02-12T21:02:19.715Z,101623.91
2023-02-12T21:04:53.086Z,101626.75
2023-02-12T21:07:25.132Z,101622.41
2023-02-12T21:10:20.400Z,101617.78
2023-02-12T21:12:49.530Z,101606.78
2023-02-12T21:15:18.553Z,101601.88
2023-02-12T21:17:47.695Z,101604.09
2023-02-12T21:20:16.741Z,101600.84
2023-02-12T21:22:47.631Z,101601.16
2023-02-12T21:25:17.959Z,101601.31
2023-02-12T21:27:47.076Z,101608.72
2023-02-12T21:30:16.245Z,101614.44
2023-02-12T21:32:48.367Z,101616.88
2023-02-12T21:35:17.332Z,101603.38
2023-02-12T21:37:46.619Z,101584.16
2023-02-12T21:40:18.657Z,101575.50
2023-02-12T21:42:47.593Z,101569.44
2023-02-12T21:45:19.392Z,101578.75
2023-02-12T21:47:49.476Z,101573.53
2023-02-12T21:50:19.630Z,101572.00
2023-02-12T21:52:51.327Z,101564.41
2023-02-12T21:55:22.204Z,101550.94
2023-02-12T21:57:51.415Z,101545.34
2023-02-12T22:00:20.729Z,101533.25
2023-02-12T22:02:49.853Z,101535.50
2023-02-12T22:05:19.069Z,101533.41
2023-02-12T22:07:51.790Z,101526.56
2023-02-12T22:10:21.320Z,101517.97
2023-02-12T22:12:50.684Z,101512.25
2023-02-12T22:15:30.712Z,101496.81
2023-02-12T22:18:03.751Z,101480.31
2023-02-12T22:20:35.740Z,101464.19
2023-02-12T22:23:05.086Z,101452.50
2023-02-12T22:25:37.076Z,101447.75
2023-02-12T22:28:06.489Z,101448.56
2023-02-12T22:30:38.945Z,101452.72
2023-02-12T22:33:09.970Z,101444.28
2023-02-12T22:35:39.050Z,101440.75
2023-02-12T22:38:13.426Z,101430.09
2023-02-12T22:40:42.335Z,101409.72
2023-02-12T22:43:11.168Z,101403.38
2023-02-12T22:45:44.999Z,101413.66
2023-02-12T22:48:13.962Z,101411.06
2023-02-12T22:50:42.800Z,101411.28
2023-02-12T22:53:11.760Z,101410.84
2023-02-12T22:55:41.399Z,101410.72
2023-02-12T22:58:51.776Z,101419.47
2023-02-12T23:03:13.486Z,101415.25
2023-02-12T23:06:54.997Z,101420.66
2023-02-12T23:09:27.056Z,101422.56
2023-02-12T23:13:28.982Z,101406.50
2023-02-12T23:16:04.847Z,101395.25
2023-02-12T23:19:04.426Z,101394.84
2023-02-12T23:21:36.559Z,101390.09
2023-02-12T23:25:18.379Z,101378.34
2023-02-12T23:28:37.156Z,101363.31
2023-02-12T23:32:03.117Z,101348.09
2023-02-12T23:34:59.231Z,101343.47
2023-02-12T23:37:35.200Z,101343.00
2023-02-12T23:40:32.936Z,101343.75
2023-02-12T23:43:19.457Z,101333.94
2023-02-12T23:46:16.047Z,101326.78
2023-02-12T23:49:07.750Z,101318.47
2023-02-12T23:51:36.776Z,101312.56
2023-02-12T23:54:15.132Z,101311.44
2023-02-12T23:56:46.720Z,101304.31
2023-02-12T23:59:16.049Z,101297.38
